• Join FlightAware (Why Join?)
  • Login
  • US Flag 
02:19PM EST


 

Airport Tracker/Info


-or-


 

Live Flight TrackerFlight Track Log ✈ N3511F ✈ 16-Oct-2013 ✈ KTAN - KMVY

Flight Track Log - Related Links

Times and Time Zones

All times are in EDT time to prevent confusion due to time zone crossing. See the N3511F flight status page for this flight to view local times or setup timezone preferences in your user account.

Time Position Orientation Groundspeed Altitude Reporting Facility
EDT Latitude Longitude Course Direction KTS MPH feet Rate Location/Type
03:43PM 41.8703 -71.0072 146° Southeast 72 83 600  Level Boston Center
03:44PM 41.8408 -70.9911 158° South 100 115 1,400 694 Climbing Boston Center
03:45PM 41.8178 -70.9747 152° Southeast 108 124 2,000 626 Climbing Boston Center
03:46PM 41.7352 -70.8990 143° Southeast  Level Estimated
03:46PM 41.7906 -70.9561 153° Southeast 111 128 2,600  Level Boston Center
03:47PM 41.7157 -70.8814 146° Southeast  Level FlightAware Approximate
03:47PM 41.7631 -70.9344 150° Southeast 114 131 3,100  Level Boston Center
03:48PM 41.6963 -70.8638 146° Southeast  Level FlightAware Approximate
03:49PM 41.6768 -70.8462 146° Southeast  Level FlightAware Approximate
03:49PM 41.7388 -70.9122 146° Southeast  Level FlightAware Approximate
03:56PM 41.6036 -70.7869 143° Southeast  Level FlightAware Approximate
03:57PM 41.5848 -70.7681 143° Southeast  Level FlightAware Approximate
03:58PM 41.5660 -70.7493 143° Southeast  Level FlightAware Approximate
03:59PM 41.5472 -70.7305 143° Southeast  Level FlightAware Approximate
04:00PM 41.5277 -70.7133 156° South  Level FlightAware Approximate
04:01PM 41.5062 -70.7004 156° South  Level FlightAware Approximate
04:02PM 41.4848 -70.6875 156° South  Level FlightAware Approximate
04:03PM 41.4634 -70.6747 156° South  Level FlightAware Approximate
04:04PM 41.4429 -70.6596 143° Southeast  Level FlightAware Approximate
04:05PM 41.4241 -70.6408 143° Southeast  Level FlightAware Approximate
04:06PM 41.4053 -70.6220 143° Southeast  Level FlightAware Approximate
04:07PM 41.3934 -70.6139 143° Southeast  Level Estimated
04:08PM 41.3934 -70.6139 North  Level Estimated
04:09PM 41.3934 -70.6139 North  Level Estimated
04:10PM 41.3934 -70.6139 North  Level Estimated
04:11PM 41.3934 -70.6139 North  Level Estimated
04:12PM 41.3934 -70.6139 North  Level Estimated
04:13PM 41.3934 -70.6139 North  Level Estimated
04:14PM 41.3934 -70.6139 North  Level Estimated